Time;durP1;ratioP1;P1;durP2;ratioP2;P2;SDS_P1;SDS_P2;PMS_P1;PMS_P2;Temp;Humidity;BMP_temperature;BMP_pressure;BME280_temperature;BME280_humidity;BME280_pressure;Samples;Min_cycle;Max_cycle;Signal;HPM_P1;HPM_P2
2021/10/17 00:00:15;;;;;;;3.08;1.60;;;22.30;54.60;;;;;;4990962;28;20710;-53
2021/10/17 00:02:42;;;;;;;2.83;1.60;;;22.40;54.60;;;;;;4991575;28;20421;-52
2021/10/17 00:05:09;;;;;;;3.97;1.80;;;22.30;54.60;;;;;;4990938;28;20035;-52
2021/10/17 00:07:35;;;;;;;2.72;1.52;;;22.30;54.60;;;;;;4992383;28;20046;-52
2021/10/17 00:10:01;;;;;;;3.15;1.70;;;22.30;54.60;;;;;;4996519;28;20128;-50
2021/10/17 00:12:27;;;;;;;3.33;1.65;;;22.30;54.60;;;;;;4985476;28;20052;-49
2021/10/17 00:14:52;;;;;;;2.92;1.50;;;22.30;54.60;;;;;;4996737;28;20514;-52
2021/10/17 00:17:18;;;;;;;2.90;1.50;;;22.30;54.60;;;;;;4990089;28;20050;-54
2021/10/17 00:19:44;;;;;;;3.13;1.52;;;22.20;54.50;;;;;;4990025;28;20037;-59
2021/10/17 00:22:09;;;;;;;2.85;1.70;;;22.20;54.60;;;;;;4982055;28;20037;-56
2021/10/17 00:24:35;;;;;;;3.35;1.67;;;22.20;54.60;;;;;;4988396;28;20148;-59
2021/10/17 00:27:00;;;;;;;2.80;1.48;;;22.20;54.50;;;;;;4991096;28;20082;-59
2021/10/17 00:29:26;;;;;;;3.15;1.80;;;22.20;54.60;;;;;;4989619;28;20033;-60
2021/10/17 00:31:52;;;;;;;2.40;1.50;;;22.20;54.60;;;;;;4985812;28;20426;-54
2021/10/17 00:34:18;;;;;;;2.38;1.50;;;22.20;54.60;;;;;;4986268;28;20074;-55
2021/10/17 00:36:44;;;;;;;2.45;1.50;;;22.20;54.60;;;;;;4983656;28;20038;-58
2021/10/17 00:39:09;;;;;;;3.38;1.60;;;22.10;54.50;;;;;;4986965;28;20045;-60
2021/10/17 00:41:35;;;;;;;3.08;1.80;;;22.20;54.60;;;;;;4974984;28;20029;-58
2021/10/17 00:44:02;;;;;;;2.40;1.60;;;22.10;54.60;;;;;;4988154;28;20038;-50
2021/10/17 00:46:29;;;;;;;3.30;1.70;;;22.10;54.50;;;;;;4993414;28;20048;-56
2021/10/17 00:48:54;;;;;;;2.88;1.70;;;22.10;54.50;;;;;;4989093;28;20131;-54
2021/10/17 00:51:20;;;;;;;2.85;1.60;;;22.10;54.60;;;;;;4986707;28;20068;-51
2021/10/17 00:53:46;;;;;;;2.50;1.60;;;22.10;54.50;;;;;;4984964;28;20038;-57
2021/10/17 00:56:12;;;;;;;3.28;1.98;;;22.10;54.50;;;;;;4993094;28;20444;-50
2021/10/17 00:58:38;;;;;;;3.33;1.80;;;22.10;54.50;;;;;;4990268;28;20102;-52
2021/10/17 01:01:04;;;;;;;3.10;2.03;;;22.00;54.50;;;;;;4989461;28;20034;-59
2021/10/17 01:03:30;;;;;;;2.75;1.42;;;22.00;54.50;;;;;;4988811;28;20042;-51
2021/10/17 01:05:56;;;;;;;2.53;1.60;;;22.00;54.50;;;;;;4986231;28;20190;-51
2021/10/17 01:08:23;;;;;;;3.33;1.70;;;22.00;54.50;;;;;;4988987;28;20066;-60
2021/10/17 01:10:52;;;;;;;2.83;1.70;;;22.00;54.50;;;;;;4988772;28;20120;-59
2021/10/17 01:13:20;;;;;;;2.17;1.50;;;22.00;54.50;;;;;;4982757;28;20040;-51
2021/10/17 01:15:51;;;;;;;3.00;1.48;;;22.00;54.50;;;;;;4982154;28;20062;-59
2021/10/17 01:18:16;;;;;;;2.85;1.80;;;21.90;54.50;;;;;;4990612;28;20036;-59
2021/10/17 01:20:42;;;;;;;2.60;1.52;;;22.00;54.50;;;;;;4978174;28;20031;-51
2021/10/17 01:23:08;;;;;;;3.08;1.50;;;21.90;54.50;;;;;;4987628;28;20105;-59
2021/10/17 01:25:34;;;;;;;3.63;1.55;;;22.00;54.60;;;;;;4983911;28;20019;-60
2021/10/17 01:28:00;;;;;;;2.45;1.40;;;21.90;54.50;;;;;;4986795;28;20087;-57
2021/10/17 01:30:29;;;;;;;2.70;1.42;;;21.90;54.50;;;;;;4988976;28;20147;-59
2021/10/17 01:32:55;;;;;;;2.10;1.42;;;21.90;54.50;;;;;;4988564;28;20433;-52
2021/10/17 01:35:21;;;;;;;2.80;1.75;;;21.90;54.60;;;;;;4986426;28;20126;-50
2021/10/17 01:37:46;;;;;;;2.80;1.70;;;21.90;54.60;;;;;;4989126;28;20479;-53
2021/10/17 01:40:12;;;;;;;2.92;1.70;;;21.90;54.60;;;;;;4988925;28;20030;-59
2021/10/17 01:42:38;;;;;;;3.03;1.67;;;21.90;54.60;;;;;;4983264;28;20050;-59
2021/10/17 01:45:05;;;;;;;2.50;1.60;;;21.90;54.60;;;;;;4987300;28;20037;-57
2021/10/17 01:47:30;;;;;;;3.03;1.55;;;21.80;54.50;;;;;;4985294;28;20030;-60
2021/10/17 01:49:56;;;;;;;2.42;1.50;;;21.80;54.50;;;;;;4989548;28;20097;-60
2021/10/17 01:52:22;;;;;;;2.15;1.40;;;21.80;54.60;;;;;;4984415;28;20057;-52
2021/10/17 01:54:48;;;;;;;2.92;1.50;;;21.80;54.60;;;;;;4989090;28;20096;-59
2021/10/17 01:57:13;;;;;;;2.75;1.70;;;21.80;54.60;;;;;;4989510;28;20027;-49
2021/10/17 01:59:39;;;;;;;2.83;1.60;;;21.80;54.60;;;;;;4985205;28;20026;-58
2021/10/17 02:02:04;;;;;;;2.80;1.60;;;21.80;54.60;;;;;;4988900;28;20042;-50
2021/10/17 02:04:30;;;;;;;2.50;1.60;;;21.80;54.60;;;;;;4990058;28;20054;-52
2021/10/17 02:06:56;;;;;;;2.58;1.45;;;21.80;54.60;;;;;;4986236;28;20113;-51
2021/10/17 02:09:21;;;;;;;2.28;1.48;;;21.80;54.60;;;;;;4986429;28;20037;-59
2021/10/17 02:11:47;;;;;;;2.50;1.50;;;21.80;54.60;;;;;;4997323;28;20704;-60
2021/10/17 02:14:12;;;;;;;2.30;1.50;;;21.70;54.50;;;;;;4987336;28;20457;-52
2021/10/17 02:16:38;;;;;;;2.53;1.55;;;21.70;54.50;;;;;;4975535;28;20043;-51
2021/10/17 02:19:04;;;;;;;2.00;1.40;;;21.80;54.60;;;;;;4980173;28;20035;-60
2021/10/17 02:21:29;;;;;;;2.60;1.50;;;21.70;54.50;;;;;;4987993;28;20034;-60
2021/10/17 02:23:55;;;;;;;2.30;1.50;;;21.70;54.60;;;;;;4988043;28;20049;-60
2021/10/17 02:26:21;;;;;;;2.33;1.40;;;21.70;54.50;;;;;;4988157;28;20110;-54
2021/10/17 02:28:46;;;;;;;2.25;1.30;;;21.70;54.50;;;;;;4986265;28;20509;-59
2021/10/17 02:31:12;;;;;;;2.35;1.35;;;21.70;54.50;;;;;;4982597;28;20133;-60
2021/10/17 02:33:39;;;;;;;2.25;1.30;;;21.70;54.60;;;;;;4988430;28;20126;-59
2021/10/17 02:36:05;;;;;;;2.40;1.52;;;21.70;54.60;;;;;;4994306;28;20022;-60
2021/10/17 02:38:31;;;;;;;2.42;1.60;;;21.70;54.60;;;;;;4982278;28;20386;-60
2021/10/17 02:40:56;;;;;;;2.70;1.60;;;21.70;54.60;;;;;;4982799;28;20058;-50
2021/10/17 02:43:22;;;;;;;2.67;1.50;;;21.60;54.60;;;;;;4986579;28;20068;-60
2021/10/17 02:45:48;;;;;;;3.00;1.60;;;21.60;54.60;;;;;;4988123;28;20558;-60
2021/10/17 02:48:13;;;;;;;3.08;1.80;;;21.60;54.60;;;;;;4982867;28;20109;-51
2021/10/17 02:50:39;;;;;;;2.50;1.30;;;21.60;54.60;;;;;;4975490;28;20034;-51
2021/10/17 02:53:05;;;;;;;2.65;1.60;;;21.60;54.60;;;;;;4981293;28;20026;-49
2021/10/17 02:55:31;;;;;;;2.78;1.50;;;21.60;54.60;;;;;;4989255;28;20030;-52
2021/10/17 02:57:56;;;;;;;2.67;1.63;;;21.60;54.70;;;;;;4987453;28;20041;-53
2021/10/17 03:00:22;;;;;;;2.33;1.45;;;21.60;54.60;;;;;;4983909;28;20038;-57
2021/10/17 03:02:47;;;;;;;2.13;1.40;;;21.60;54.70;;;;;;4980543;28;20031;-60
2021/10/17 03:05:13;;;;;;;2.28;1.40;;;21.60;54.70;;;;;;4986656;28;20065;-52
2021/10/17 03:07:39;;;;;;;2.25;1.50;;;21.60;54.70;;;;;;4990749;28;20046;-59
2021/10/17 03:10:06;;;;;;;2.40;1.52;;;21.60;54.70;;;;;;4991093;28;20470;-60
2021/10/17 03:12:32;;;;;;;2.10;1.33;;;21.60;54.70;;;;;;4991790;28;20108;-53
2021/10/17 03:14:57;;;;;;;2.60;1.70;;;21.60;54.70;;;;;;4989550;28;20470;-55
2021/10/17 03:17:24;;;;;;;2.83;1.70;;;21.60;54.70;;;;;;4987693;28;20034;-53
2021/10/17 03:19:50;;;;;;;2.58;1.50;;;21.50;54.60;;;;;;4992397;28;20061;-56
2021/10/17 03:22:15;;;;;;;2.50;1.50;;;21.50;54.70;;;;;;4986182;28;20026;-53
2021/10/17 03:24:41;;;;;;;2.75;1.40;;;21.50;54.70;;;;;;4990860;28;20061;-58
2021/10/17 03:27:06;;;;;;;2.05;1.40;;;21.50;54.70;;;;;;4990265;28;20073;-53
2021/10/17 03:29:32;;;;;;;2.28;1.30;;;21.50;54.70;;;;;;4991369;28;20034;-59
2021/10/17 03:31:58;;;;;;;2.80;1.67;;;21.50;54.70;;;;;;4991550;28;20133;-52
2021/10/17 03:34:23;;;;;;;2.30;1.50;;;21.50;54.70;;;;;;4990904;28;20037;-52
2021/10/17 03:36:49;;;;;;;2.30;1.40;;;21.50;54.80;;;;;;4985175;28;20458;-59
2021/10/17 03:39:14;;;;;;;2.65;1.60;;;21.50;54.80;;;;;;4989737;28;20156;-56
2021/10/17 03:41:40;;;;;;;1.98;1.30;;;21.50;54.80;;;;;;4987315;28;20130;-58
2021/10/17 03:44:06;;;;;;;2.15;1.20;;;21.50;54.80;;;;;;4988187;28;20458;-51
2021/10/17 03:46:31;;;;;;;2.13;1.40;;;21.40;54.70;;;;;;4980441;28;20026;-59
2021/10/17 03:48:57;;;;;;;2.25;1.50;;;21.40;54.70;;;;;;4986293;28;20540;-59
2021/10/17 03:51:22;;;;;;;2.60;1.60;;;21.40;54.70;;;;;;4984241;28;20026;-52
2021/10/17 03:53:48;;;;;;;2.20;1.48;;;21.50;54.80;;;;;;4985690;28;20073;-60
2021/10/17 03:56:13;;;;;;;2.20;1.40;;;21.40;54.70;;;;;;4982498;28;20022;-58
2021/10/17 03:58:39;;;;;;;2.17;1.40;;;21.40;54.70;;;;;;4983483;28;20025;-60
2021/10/17 04:01:05;;;;;;;1.73;1.30;;;21.40;54.80;;;;;;4988288;28;20038;-58
2021/10/17 04:03:30;;;;;;;2.50;1.67;;;21.40;54.80;;;;;;4989368;28;20133;-52
2021/10/17 04:05:56;;;;;;;1.85;1.30;;;21.40;54.80;;;;;;4989208;28;20080;-60
2021/10/17 04:08:21;;;;;;;2.65;1.40;;;21.40;54.80;;;;;;4988685;28;20122;-53
2021/10/17 04:10:47;;;;;;;1.80;1.30;;;21.40;54.80;;;;;;4988453;28;20671;-53
2021/10/17 04:13:13;;;;;;;2.20;1.33;;;21.40;54.80;;;;;;4988007;28;20042;-50
2021/10/17 04:15:38;;;;;;;1.88;1.35;;;21.40;54.80;;;;;;4987505;28;20105;-58
2021/10/17 04:18:05;;;;;;;2.00;1.20;;;21.40;54.80;;;;;;4990352;28;20057;-50
2021/10/17 04:20:31;;;;;;;1.48;1.13;;;21.40;54.80;;;;;;4982808;28;20050;-60
2021/10/17 04:22:59;;;;;;;2.00;1.40;;;21.40;54.80;;;;;;4986051;28;20046;-59
2021/10/17 04:25:26;;;;;;;2.13;1.40;;;21.40;54.80;;;;;;4990761;28;20517;-53
2021/10/17 04:27:51;;;;;;;2.15;1.23;;;21.40;54.80;;;;;;4981532;28;20814;-53
2021/10/17 04:30:17;;;;;;;1.77;1.23;;;21.40;54.80;;;;;;4988722;28;20037;-50
2021/10/17 04:32:43;;;;;;;2.08;1.50;;;21.30;54.80;;;;;;4984952;28;20036;-58
2021/10/17 04:35:09;;;;;;;2.47;1.60;;;21.30;54.90;;;;;;4994351;28;20048;-56
2021/10/17 04:37:35;;;;;;;2.15;1.30;;;21.30;54.80;;;;;;4983589;28;20113;-50
2021/10/17 04:40:05;;;;;;;1.83;1.30;;;21.30;54.80;;;;;;4990495;28;20039;-51
2021/10/17 04:42:31;;;;;;;1.83;1.20;;;21.30;54.80;;;;;;4989954;28;20053;-52
2021/10/17 04:44:58;;;;;;;1.67;1.17;;;21.30;54.80;;;;;;4989145;28;20065;-54
2021/10/17 04:47:23;;;;;;;2.58;1.40;;;21.30;54.80;;;;;;4980427;28;20053;-56
2021/10/17 04:49:49;;;;;;;1.95;1.40;;;21.30;54.80;;;;;;4993997;28;20358;-50
2021/10/17 04:52:14;;;;;;;2.17;1.30;;;21.30;54.80;;;;;;4984734;28;20065;-54
2021/10/17 04:54:40;;;;;;;1.92;1.10;;;21.30;54.80;;;;;;4985452;28;20026;-57
2021/10/17 04:57:06;;;;;;;1.63;1.27;;;21.30;54.80;;;;;;4986964;28;20483;-48
2021/10/17 04:59:31;;;;;;;1.88;1.30;;;21.30;54.80;;;;;;4988773;28;20028;-59
2021/10/17 05:01:57;;;;;;;2.28;1.38;;;21.30;54.80;;;;;;4985504;28;20038;-60
2021/10/17 05:04:22;;;;;;;1.70;1.10;;;21.30;54.80;;;;;;4987896;28;20042;-49
2021/10/17 05:06:48;;;;;;;1.83;1.20;;;21.30;54.90;;;;;;4988257;28;20109;-58
2021/10/17 05:09:13;;;;;;;1.92;1.30;;;21.30;54.90;;;;;;4995720;28;20040;-58
2021/10/17 05:11:39;;;;;;;2.28;1.45;;;21.30;54.90;;;;;;4988843;28;20035;-59
2021/10/17 05:14:05;;;;;;;2.00;1.25;;;21.30;54.90;;;;;;4987742;28;20446;-55
2021/10/17 05:16:30;;;;;;;1.90;1.00;;;21.30;54.90;;;;;;4983137;28;20149;-50
2021/10/17 05:18:56;;;;;;;1.58;1.10;;;21.30;54.90;;;;;;4986221;28;20043;-58
2021/10/17 05:21:21;;;;;;;1.70;1.20;;;21.30;54.90;;;;;;4980664;28;20102;-60
2021/10/17 05:23:47;;;;;;;2.08;1.30;;;21.30;54.90;;;;;;4983013;28;20043;-51
2021/10/17 05:26:13;;;;;;;1.80;1.20;;;21.30;54.90;;;;;;4984238;28;20040;-52
2021/10/17 05:28:38;;;;;;;2.13;1.20;;;21.20;54.90;;;;;;4988554;28;20031;-59
2021/10/17 05:31:04;;;;;;;1.98;1.20;;;21.30;54.90;;;;;;4985927;28;20070;-59
2021/10/17 05:33:30;;;;;;;1.30;1.00;;;21.30;55.00;;;;;;4990734;28;20026;-54
2021/10/17 05:35:56;;;;;;;1.70;1.20;;;21.20;54.90;;;;;;4988497;28;20106;-54
2021/10/17 05:38:22;;;;;;;1.67;1.10;;;21.30;54.90;;;;;;4990226;28;20477;-52
2021/10/17 05:40:47;;;;;;;1.65;1.15;;;21.20;54.90;;;;;;4984414;28;20104;-50
2021/10/17 05:43:13;;;;;;;2.30;1.20;;;21.20;54.90;;;;;;4987171;28;20030;-46
2021/10/17 05:45:39;;;;;;;2.22;1.10;;;21.20;54.90;;;;;;4986192;28;20463;-48
2021/10/17 05:48:04;;;;;;;1.88;1.20;;;21.20;54.90;;;;;;4977537;28;20019;-51
2021/10/17 05:50:30;;;;;;;1.60;1.00;;;21.20;55.00;;;;;;4976432;28;20049;-50
2021/10/17 05:52:55;;;;;;;2.03;1.10;;;21.20;54.90;;;;;;4985606;28;20046;-59
2021/10/17 05:55:21;;;;;;;1.88;1.00;;;21.20;54.90;;;;;;4985093;28;20038;-58
2021/10/17 05:57:47;;;;;;;1.73;1.20;;;21.20;54.90;;;;;;4977318;28;20030;-59
2021/10/17 06:00:12;;;;;;;1.90;1.17;;;21.20;54.90;;;;;;4982353;28;20030;-50
2021/10/17 06:02:38;;;;;;;2.05;1.20;;;21.20;55.00;;;;;;4987276;28;20093;-54
2021/10/17 06:05:04;;;;;;;1.40;1.00;;;21.20;54.90;;;;;;4990728;28;20026;-58
2021/10/17 06:07:30;;;;;;;1.58;1.13;;;21.20;54.90;;;;;;4984300;28;20422;-59
2021/10/17 06:09:56;;;;;;;1.45;1.10;;;21.20;55.00;;;;;;4984947;28;20037;-59
2021/10/17 06:12:21;;;;;;;1.60;1.17;;;21.20;55.00;;;;;;4987887;28;20471;-59
2021/10/17 06:14:47;;;;;;;1.58;1.10;;;21.20;55.00;;;;;;4990386;28;20034;-57
2021/10/17 06:17:12;;;;;;;1.60;1.20;;;21.20;54.90;;;;;;4976732;28;20122;-59
2021/10/17 06:19:38;;;;;;;1.73;1.20;;;21.20;55.00;;;;;;4978339;28;20041;-53
2021/10/17 06:22:06;;;;;;;1.40;1.02;;;21.20;55.00;;;;;;4985535;28;20125;-47
2021/10/17 06:24:32;;;;;;;1.67;1.30;;;21.20;55.00;;;;;;4985290;28;20034;-58
2021/10/17 06:26:58;;;;;;;1.98;1.10;;;21.20;55.00;;;;;;4981330;28;20109;-57
2021/10/17 06:29:24;;;;;;;1.40;0.90;;;21.10;54.90;;;;;;4979722;28;20027;-51
2021/10/17 06:31:50;;;;;;;1.70;1.15;;;21.20;55.00;;;;;;4982148;28;20038;-48
2021/10/17 06:34:16;;;;;;;1.52;1.10;;;21.10;55.00;;;;;;4989973;28;20112;-59
2021/10/17 06:36:41;;;;;;;1.60;1.10;;;21.20;55.00;;;;;;4982367;28;20534;-61
2021/10/17 06:39:07;;;;;;;1.65;1.10;;;21.10;54.90;;;;;;4975021;28;20041;-51
2021/10/17 06:41:33;;;;;;;1.65;1.10;;;21.10;54.90;;;;;;4973776;28;20133;-51
2021/10/17 06:43:59;;;;;;;1.50;1.00;;;21.10;54.90;;;;;;4989911;28;20023;-55
2021/10/17 06:46:24;;;;;;;1.52;1.00;;;21.10;55.50;;;;;;4981275;28;20537;-52
2021/10/17 06:48:50;;;;;;;1.70;1.10;;;21.10;54.90;;;;;;4985788;28;20092;-57
2021/10/17 06:51:16;;;;;;;1.95;1.20;;;21.10;54.90;;;;;;4982160;28;20034;-53
2021/10/17 06:53:41;;;;;;;1.08;0.90;;;21.10;55.00;;;;;;4976935;28;20539;-53
2021/10/17 06:56:07;;;;;;;1.55;1.00;;;21.10;55.00;;;;;;4988364;28;20049;-52
2021/10/17 06:58:33;;;;;;;1.90;1.10;;;21.10;55.00;;;;;;4981200;28;20038;-48
2021/10/17 07:00:59;;;;;;;1.23;1.00;;;21.10;55.00;;;;;;4989426;28;20034;-58
2021/10/17 07:03:24;;;;;;;1.27;1.00;;;21.10;55.00;;;;;;4987776;28;20035;-54
2021/10/17 07:05:50;;;;;;;1.30;0.95;;;21.10;55.00;;;;;;4983815;28;20038;-48
2021/10/17 07:08:16;;;;;;;1.20;1.00;;;21.10;55.00;;;;;;4982671;28;20038;-58
2021/10/17 07:10:41;;;;;;;1.67;1.02;;;21.10;55.00;;;;;;4982711;28;20057;-59
2021/10/17 07:13:07;;;;;;;1.10;0.90;;;21.10;55.00;;;;;;4987603;28;20034;-46
2021/10/17 07:15:33;;;;;;;1.67;1.15;;;21.10;55.00;;;;;;4986310;28;20533;-53
2021/10/17 07:17:58;;;;;;;1.67;1.10;;;21.10;55.00;;;;;;4980804;28;20026;-57
2021/10/17 07:20:24;;;;;;;1.88;1.15;;;21.10;55.00;;;;;;4978434;28;20046;-50
2021/10/17 07:22:50;;;;;;;2.05;1.00;;;21.10;55.00;;;;;;4981570;28;20050;-59
2021/10/17 07:25:16;;;;;;;1.30;1.10;;;21.10;55.00;;;;;;4994369;28;20102;-57
2021/10/17 07:27:44;;;;;;;1.48;1.00;;;21.10;55.00;;;;;;4986304;28;20122;-51
2021/10/17 07:30:10;;;;;;;1.60;1.00;;;21.10;55.00;;;;;;4984475;28;20022;-50
2021/10/17 07:32:36;;;;;;;1.80;1.17;;;21.10;55.00;;;;;;4986736;28;20026;-61
2021/10/17 07:35:02;;;;;;;1.58;1.00;;;21.10;55.00;;;;;;4977922;28;20030;-59
2021/10/17 07:37:28;;;;;;;1.63;1.02;;;21.10;55.00;;;;;;4982755;28;20031;-52
2021/10/17 07:39:53;;;;;;;1.67;1.17;;;21.10;55.00;;;;;;4990493;28;20097;-53
2021/10/17 07:42:19;;;;;;;1.30;1.00;;;21.10;55.00;;;;;;4999164;28;20038;-60
2021/10/17 07:44:45;;;;;;;1.35;0.90;;;21.10;55.00;;;;;;4991202;28;20053;-52
2021/10/17 07:47:10;;;;;;;1.23;0.90;;;21.00;55.00;;;;;;4982766;28;20034;-52
2021/10/17 07:49:36;;;;;;;1.65;1.10;;;21.10;55.00;;;;;;4980497;28;20062;-59
2021/10/17 07:52:01;;;;;;;1.40;1.00;;;21.00;55.00;;;;;;4978240;28;20120;-55
2021/10/17 07:54:27;;;;;;;1.48;1.02;;;21.00;55.00;;;;;;4990323;28;20046;-61
2021/10/17 07:56:53;;;;;;;1.50;1.00;;;21.00;55.00;;;;;;4989092;28;20517;-54
2021/10/17 07:59:18;;;;;;;1.85;1.00;;;21.00;55.00;;;;;;4990127;28;20053;-60
2021/10/17 08:01:44;;;;;;;1.58;1.02;;;21.00;55.00;;;;;;4989814;28;20043;-55
2021/10/17 08:04:10;;;;;;;1.60;1.00;;;21.00;55.00;;;;;;4989230;28;20684;-58
2021/10/17 08:06:35;;;;;;;1.45;1.10;;;21.00;55.00;;;;;;4984363;28;20394;-58
2021/10/17 08:09:01;;;;;;;1.63;1.10;;;21.00;55.00;;;;;;4987420;28;20179;-59
2021/10/17 08:11:27;;;;;;;1.42;1.00;;;21.00;55.00;;;;;;4994672;28;20038;-51
2021/10/17 08:13:52;;;;;;;1.45;0.98;;;21.00;55.00;;;;;;4978487;28;20045;-52
2021/10/17 08:16:18;;;;;;;1.52;1.10;;;21.00;55.00;;;;;;4988919;28;20045;-58
2021/10/17 08:18:43;;;;;;;1.20;0.90;;;21.00;55.10;;;;;;4989765;28;20038;-57
2021/10/17 08:21:09;;;;;;;1.45;0.98;;;21.00;55.00;;;;;;4981420;28;20094;-55
2021/10/17 08:23:35;;;;;;;1.65;1.10;;;21.00;55.00;;;;;;4984869;28;20025;-53
2021/10/17 08:26:00;;;;;;;1.52;0.98;;;21.00;55.00;;;;;;4981347;28;20072;-54
2021/10/17 08:28:28;;;;;;;1.60;1.00;;;21.00;55.00;;;;;;4986674;28;20168;-56
2021/10/17 08:30:55;;;;;;;1.67;1.20;;;21.00;55.00;;;;;;4993036;28;20435;-59
2021/10/17 08:33:20;;;;;;;1.60;1.20;;;21.00;55.10;;;;;;4984265;28;20074;-59
2021/10/17 08:35:46;;;;;;;1.33;0.95;;;21.00;55.10;;;;;;4982441;28;20392;-60
2021/10/17 08:38:12;;;;;;;1.63;1.10;;;21.00;55.60;;;;;;4986875;28;20238;-60
2021/10/17 08:40:39;;;;;;;1.80;1.20;;;21.00;55.00;;;;;;4986537;28;20038;-57
2021/10/17 08:43:05;;;;;;;1.48;1.08;;;21.00;55.00;;;;;;4981369;28;20744;-50
2021/10/17 08:45:31;;;;;;;1.83;1.20;;;21.00;55.10;;;;;;4977627;28;20096;-56
2021/10/17 08:47:58;;;;;;;1.73;1.10;;;21.00;55.10;;;;;;4981967;28;20371;-50
2021/10/17 08:50:24;;;;;;;1.42;1.10;;;21.00;55.10;;;;;;4983775;28;20022;-59
2021/10/17 08:52:49;;;;;;;1.70;1.17;;;21.00;55.10;;;;;;4985339;28;20034;-51
2021/10/17 08:55:15;;;;;;;1.83;1.20;;;21.00;55.10;;;;;;4986346;28;20339;-58
2021/10/17 08:57:40;;;;;;;1.70;1.13;;;21.00;55.10;;;;;;4997640;28;20049;-53
2021/10/17 09:00:29;;;;;;;2.05;1.35;;;21.00;55.10;;;;;;4991703;28;21252;-55
2021/10/17 09:02:55;;;;;;;1.77;1.20;;;21.00;55.20;;;;;;4989190;28;20036;-59
2021/10/17 09:05:33;;;;;;;2.20;1.30;;;21.00;55.10;;;;;;4989295;28;20034;-59
2021/10/17 09:07:58;;;;;;;2.35;1.40;;;21.00;55.40;;;;;;4984234;28;20030;-57
2021/10/17 09:10:24;;;;;;;2.78;1.50;;;21.10;55.50;;;;;;4981547;28;20104;-58
2021/10/17 09:12:50;;;;;;;4.07;1.98;;;21.20;55.60;;;;;;4979702;28;20103;-58
2021/10/17 09:15:25;;;;;;;2.75;1.70;;;21.30;55.40;;;;;;4981352;28;20022;-59
2021/10/17 09:18:15;;;;;;;2.97;1.70;;;21.40;55.30;;;;;;4981849;28;20022;-58
2021/10/17 09:20:46;;;;;;;3.10;1.67;;;21.60;55.00;;;;;;4982203;28;20510;-56
2021/10/17 09:23:13;;;;;;;2.80;1.50;;;21.70;54.80;;;;;;4984129;28;20026;-59
2021/10/17 09:25:39;;;;;;;2.67;1.65;;;21.80;55.10;;;;;;4981496;28;20044;-59
2021/10/17 09:28:28;;;;;;;3.30;1.70;;;21.90;54.80;;;;;;4983514;28;21570;-58
2021/10/17 09:30:58;;;;;;;2.67;1.60;;;22.00;54.70;;;;;;4987682;28;20043;-59
2021/10/17 09:33:24;;;;;;;3.22;1.75;;;22.00;54.50;;;;;;4975587;28;20684;-57
2021/10/17 09:35:50;;;;;;;3.50;2.05;;;22.10;54.40;;;;;;4975615;28;20088;-59
2021/10/17 09:38:17;;;;;;;3.58;2.20;;;22.20;54.50;;;;;;4980761;28;20112;-58
2021/10/17 09:40:45;;;;;;;3.67;2.42;;;22.40;54.10;;;;;;4977350;28;20213;-59
2021/10/17 09:43:26;;;;;;;6.20;3.22;;;22.40;54.10;;;;;;4983426;28;20058;-58
2021/10/17 09:46:07;;;;;;;7.88;3.50;;;22.60;54.10;;;;;;4982686;28;20486;-60
2021/10/17 09:48:32;;;;;;;5.35;3.10;;;22.60;53.80;;;;;;4982166;28;20425;-58
2021/10/17 09:51:29;;;;;;;5.63;3.20;;;22.70;53.80;;;;;;4979405;28;20042;-59
2021/10/17 09:53:57;;;;;;;5.80;3.55;;;22.90;53.80;;;;;;4982975;28;20164;-57
2021/10/17 09:56:36;;;;;;;6.07;3.33;;;22.90;53.60;;;;;;4991473;28;20631;-57
2021/10/17 09:59:06;;;;;;;7.72;3.80;;;23.00;53.40;;;;;;4985332;28;20135;-53
2021/10/17 10:01:33;;;;;;;5.38;3.13;;;23.20;53.40;;;;;;4984372;28;20040;-58
2021/10/17 10:04:01;;;;;;;4.93;3.10;;;23.20;53.30;;;;;;4996185;28;20036;-58
2021/10/17 10:06:28;;;;;;;6.15;3.10;;;23.30;53.20;;;;;;4982951;28;20773;-58
2021/10/17 10:09:08;;;;;;;6.68;3.95;;;23.30;53.70;;;;;;4989726;28;20675;-58
2021/10/17 10:11:35;;;;;;;6.15;3.83;;;23.30;53.30;;;;;;4984257;28;20109;-54
2021/10/17 10:14:03;;;;;;;6.95;4.10;;;23.30;53.10;;;;;;4988292;28;20037;-49
2021/10/17 10:16:30;;;;;;;6.55;3.90;;;23.30;53.10;;;;;;4991127;28;20045;-58
2021/10/17 10:19:04;;;;;;;6.78;3.50;;;23.30;53.00;;;;;;4987337;28;20309;-58
2021/10/17 10:21:31;;;;;;;8.10;3.70;;;23.30;52.90;;;;;;4991476;28;20109;-58
2021/10/17 10:24:02;;;;;;;6.28;3.72;;;23.30;52.80;;;;;;4984333;28;20034;-54
2021/10/17 10:26:30;;;;;;;7.05;3.40;;;23.30;52.80;;;;;;4986068;28;20034;-55
2021/10/17 10:28:56;;;;;;;7.18;3.70;;;23.30;52.80;;;;;;4992976;28;20092;-56
2021/10/17 10:31:46;;;;;;;7.15;3.97;;;23.30;52.80;;;;;;4988582;28;20414;-55
2021/10/17 10:34:34;;;;;;;8.20;3.40;;;23.30;52.80;;;;;;4993970;28;20053;-58
2021/10/17 10:37:11;;;;;;;6.88;3.65;;;23.30;52.80;;;;;;4971600;28;20080;-58
2021/10/17 10:39:37;;;;;;;6.78;3.30;;;23.30;52.80;;;;;;4979331;28;20037;-55
2021/10/17 10:42:16;;;;;;;6.78;3.45;;;23.30;52.90;;;;;;4986376;28;20096;-57
2021/10/17 10:44:42;;;;;;;5.15;3.28;;;23.30;52.90;;;;;;4989414;28;20096;-58
2021/10/17 10:47:20;;;;;;;5.70;3.50;;;23.30;52.90;;;;;;4980082;28;20408;-58
2021/10/17 10:49:48;;;;;;;6.37;3.40;;;23.20;52.80;;;;;;4989726;28;20773;-56
2021/10/17 10:52:23;;;;;;;4.93;3.15;;;23.20;52.80;;;;;;4986055;28;20352;-59
2021/10/17 10:54:49;;;;;;;7.50;3.38;;;23.20;52.80;;;;;;4996294;28;20033;-58
2021/10/17 10:57:22;;;;;;;7.13;3.50;;;23.20;52.90;;;;;;4983553;28;20089;-56
2021/10/17 11:00:05;;;;;;;5.40;3.17;;;23.20;52.80;;;;;;4986854;28;20076;-58
2021/10/17 11:02:32;;;;;;;5.22;3.10;;;23.20;52.90;;;;;;4983218;28;20039;-57
2021/10/17 11:05:02;;;;;;;5.97;3.20;;;23.20;52.90;;;;;;4987593;28;20046;-58
2021/10/17 11:07:27;;;;;;;;;;;23.10;52.80;;;;;;4982786;28;20065;-59
2021/10/17 11:09:55;;;;;;;5.57;3.03;;;23.10;52.90;;;;;;4988012;28;19914;-54
2021/10/17 11:12:43;;;;;;;5.05;2.97;;;23.10;52.90;;;;;;4987283;28;20044;-56
2021/10/17 11:15:11;;;;;;;4.85;2.80;;;23.20;53.00;;;;;;4981106;28;20314;-59
2021/10/17 11:17:38;;;;;;;4.05;2.50;;;23.10;53.00;;;;;;4985903;28;20037;-58
2021/10/17 11:20:05;;;;;;;4.75;2.97;;;23.10;53.10;;;;;;4977465;28;20390;-58
2021/10/17 11:22:34;;;;;;;4.53;2.97;;;23.10;53.20;;;;;;4978619;28;20030;-59
2021/10/17 11:25:01;;;;;;;6.15;3.00;;;23.10;53.20;;;;;;4974238;28;20101;-58
2021/10/17 11:27:26;;;;;;;6.30;2.90;;;23.10;53.20;;;;;;4987507;28;20399;-54
2021/10/17 11:29:52;;;;;;;4.68;2.53;;;23.10;53.20;;;;;;4979066;28;20089;-59
2021/10/17 11:32:18;;;;;;;4.07;2.50;;;23.10;53.30;;;;;;4979658;28;20042;-58
2021/10/17 11:35:03;;;;;;;5.88;2.92;;;23.10;53.30;;;;;;4981816;28;20046;-59
2021/10/17 11:37:31;;;;;;;4.85;2.70;;;23.10;53.40;;;;;;4977777;28;20098;-57
2021/10/17 11:39:59;;;;;;;4.38;2.70;;;23.10;53.40;;;;;;4983047;28;20069;-55
2021/10/17 11:42:27;;;;;;;5.20;2.80;;;23.10;53.40;;;;;;4986802;28;20049;-57
2021/10/17 11:44:55;;;;;;;4.30;2.60;;;23.10;53.40;;;;;;4982735;28;20026;-57
2021/10/17 11:47:21;;;;;;;4.20;2.50;;;23.10;53.40;;;;;;4977036;28;20041;-59
2021/10/17 11:49:47;;;;;;;4.78;2.50;;;23.10;53.40;;;;;;4984222;28;20090;-56
2021/10/17 11:52:14;;;;;;;4.30;2.30;;;23.10;53.50;;;;;;4976493;28;20154;-59
2021/10/17 11:54:48;;;;;;;4.35;2.35;;;23.10;54.10;;;;;;4981803;28;20041;-55
2021/10/17 11:57:31;;;;;;;5.35;2.20;;;23.10;53.60;;;;;;4981607;28;20026;-58
2021/10/17 12:00:01;;;;;;;4.80;2.58;;;23.10;53.70;;;;;;4985000;28;20030;-57
2021/10/17 12:02:36;;;;;;;3.97;2.47;;;23.10;53.60;;;;;;4989429;28;20092;-56
2021/10/17 12:05:15;;;;;;;5.78;2.47;;;23.10;53.50;;;;;;4979716;28;20065;-58
2021/10/17 12:07:41;;;;;;;4.07;2.53;;;23.10;53.50;;;;;;4981926;28;20030;-55
2021/10/17 12:10:09;;;;;;;5.28;2.72;;;23.20;53.50;;;;;;4979564;28;20367;-58
2021/10/17 12:12:39;;;;;;;3.95;2.22;;;23.20;53.70;;;;;;4984173;28;20080;-59
2021/10/17 12:15:06;;;;;;;;;;;23.20;53.60;;;;;;4984342;28;20131;-58
2021/10/17 12:17:33;;;;;;;3.47;2.10;;;23.20;53.70;;;;;;4984372;28;20695;-59
2021/10/17 12:20:04;;;;;;;4.65;2.10;;;23.20;53.60;;;;;;4978852;28;20045;-58
2021/10/17 12:22:30;;;;;;;3.80;2.10;;;23.20;53.60;;;;;;4979806;28;20092;-56
2021/10/17 12:25:00;;;;;;;4.28;2.40;;;23.20;53.80;;;;;;4986713;28;20375;-60
2021/10/17 12:27:33;;;;;;;3.50;2.30;;;23.20;53.80;;;;;;4984148;28;20069;-57
2021/10/17 12:30:09;;;;;;;3.22;2.28;;;23.20;53.70;;;;;;4985257;28;20039;-56
2021/10/17 12:32:46;;;;;;;4.85;2.40;;;23.20;53.70;;;;;;4986941;28;20076;-53
2021/10/17 12:35:23;;;;;;;6.35;2.72;;;23.20;53.70;;;;;;4984270;28;20158;-54
2021/10/17 12:37:50;;;;;;;6.18;2.20;;;23.20;53.60;;;;;;4979635;28;20039;-55
2021/10/17 12:40:16;;;;;;;4.10;2.50;;;23.20;53.60;;;;;;4987305;28;20105;-57
2021/10/17 12:42:49;;;;;;;3.90;2.55;;;23.20;53.60;;;;;;4991288;28;20498;-58
2021/10/17 12:45:15;;;;;;;3.42;2.20;;;23.20;53.60;;;;;;4985799;28;20301;-54
2021/10/17 12:47:51;;;;;;;5.20;2.20;;;23.20;53.60;;;;;;4975284;28;20084;-53